AAL94 KJFK-LEMD
Flight info
| Callsign | AAL94 |
|---|---|
| Flight time | N/A |
| Altitude | 37000 |
| Route | HAPIE DCT YAHOO DCT TUSKY N221B OMSAT/M084F390 DCT 4730N05000W 48N040W 47N030W 4430N02000W/M084F410 DCT RETEN/N0488F410 DCT EPOPO DCT ADORO/N0486F400 L155 ZMR |
| Aircraft | B772/H-SDE2E3FGHIJ5LORVWXY/LB1D1 |
Departure
| Time | 2026-05-08 08:19 |
|---|---|
| Airport | John F. Kennedy International Airport (KJFK) |
Arrival
| Time | N/A |
|---|---|
| Airport | Adolfo Suárez Madrid–Barajas Airport (LEMD) |
| Time | Latitude | Longitude | Altitude | Speed | Heading |
|---|---|---|---|---|---|
| 2026-05-08 07:48 | 40.64819 | -73.79290 | 22 ft | 0 kts | 150° |
| 2026-05-08 08:03 | 40.64831 | -73.79298 | 22 ft | 2 kts | 158° |
| 2026-05-08 08:03 | 40.64845 | -73.79303 | 22 ft | 2 kts | 177° |
| 2026-05-08 08:03 | 40.64859 | -73.79302 | 22 ft | 2 kts | 192° |
| 2026-05-08 08:03 | 40.64874 | -73.79296 | 22 ft | 2 kts | 208° |
| 2026-05-08 08:04 | 40.64886 | -73.79285 | 22 ft | 2 kts | 224° |
| 2026-05-08 08:04 | 40.64895 | -73.79271 | 22 ft | 0 kts | 239° |
| 2026-05-08 08:04 | 40.64897 | -73.79266 | 22 ft | 0 kts | 241° |
| 2026-05-08 08:10 | 40.64896 | -73.79266 | 21 ft | 1 kts | 240° |
| 2026-05-08 08:11 | 40.64867 | -73.79324 | 21 ft | 11 kts | 237° |
| 2026-05-08 08:11 | 40.64811 | -73.79451 | 21 ft | 20 kts | 241° |
| 2026-05-08 08:11 | 40.64732 | -73.79639 | 21 ft | 24 kts | 240° |
| 2026-05-08 08:11 | 40.64625 | -73.79659 | 22 ft | 18 kts | 150° |
| 2026-05-08 08:12 | 40.64505 | -73.79598 | 21 ft | 19 kts | 175° |
| 2026-05-08 08:12 | 40.64360 | -73.79593 | 22 ft | 23 kts | 182° |
| 2026-05-08 08:12 | 40.64182 | -73.79604 | 21 ft | 28 kts | 181° |
| 2026-05-08 08:12 | 40.63985 | -73.79501 | 18 ft | 34 kts | 125° |
| 2026-05-08 08:13 | 40.63853 | -73.79219 | 19 ft | 38 kts | 120° |
| 2026-05-08 08:13 | 40.63714 | -73.78912 | 19 ft | 40 kts | 120° |
| 2026-05-08 08:13 | 40.63568 | -73.78586 | 18 ft | 42 kts | 120° |
| 2026-05-08 08:13 | 40.63421 | -73.78258 | 18 ft | 28 kts | 121° |
| 2026-05-08 08:14 | 40.63354 | -73.78111 | 18 ft | 13 kts | 117° |
| 2026-05-08 08:14 | 40.63328 | -73.77984 | 18 ft | 16 kts | 88° |
| 2026-05-08 08:14 | 40.63318 | -73.77829 | 18 ft | 18 kts | 112° |
| 2026-05-08 08:14 | 40.63248 | -73.77669 | 18 ft | 22 kts | 122° |
| 2026-05-08 08:15 | 40.63160 | -73.77470 | 18 ft | 27 kts | 121° |
| 2026-05-08 08:15 | 40.63070 | -73.77277 | 18 ft | 21 kts | 121° |
| 2026-05-08 08:15 | 40.63001 | -73.77127 | 18 ft | 13 kts | 130° |
| 2026-05-08 08:15 | 40.62922 | -73.77109 | 18 ft | 12 kts | 200° |
| 2026-05-08 08:16 | 40.62912 | -73.77113 | 18 ft | 0 kts | 201° |
| 2026-05-08 08:16 | 40.62908 | -73.77116 | 18 ft | 0 kts | 205° |
| 2026-05-08 08:16 | 40.62897 | -73.77123 | 18 ft | 3 kts | 205° |
| 2026-05-08 08:17 | 40.62887 | -73.77129 | 18 ft | 0 kts | 205° |
| 2026-05-08 08:18 | 40.62886 | -73.77129 | 18 ft | 0 kts | 205° |
| 2026-05-08 08:18 | 40.62839 | -73.77167 | 18 ft | 15 kts | 213° |
| 2026-05-08 08:18 | 40.62838 | -73.77284 | 18 ft | 14 kts | 308° |
| 2026-05-08 08:19 | 40.62911 | -73.77420 | 18 ft | 38 kts | 303° |
| 2026-05-08 08:19 | 40.63202 | -73.78064 | 18 ft | 126 kts | 301° |
| 2026-05-08 08:19 | 40.63764 | -73.79316 | 141 ft | 185 kts | 302° |
| 2026-05-08 08:19 | 40.64405 | -73.80753 | 973 ft | 193 kts | 303° |
| 2026-05-08 08:20 | 40.65080 | -73.82172 | 1768 ft | 194 kts | 305° |
| 2026-05-08 08:20 | 40.65825 | -73.83484 | 2261 ft | 204 kts | 300° |
| 2026-05-08 08:20 | 40.66222 | -73.85344 | 2699 ft | 224 kts | 269° |
| 2026-05-08 08:20 | 40.65699 | -73.87332 | 3117 ft | 248 kts | 234° |
| 2026-05-08 08:21 | 40.64267 | -73.88719 | 3765 ft | 263 kts | 205° |
| 2026-05-08 08:21 | 40.62472 | -73.89123 | 4526 ft | 272 kts | 178° |
| 2026-05-08 08:21 | 40.60651 | -73.88370 | 5283 ft | 281 kts | 149° |
| 2026-05-08 08:21 | 40.59288 | -73.86531 | 6007 ft | 287 kts | 119° |
| 2026-05-08 08:22 | 40.58736 | -73.84078 | 6672 ft | 290 kts | 91° |
| 2026-05-08 08:22 | 40.58778 | -73.81463 | 7340 ft | 295 kts | 90° |
| 2026-05-08 08:22 | 40.58509 | -73.78747 | 7995 ft | 301 kts | 102° |
| 2026-05-08 08:22 | 40.57972 | -73.76096 | 8692 ft | 305 kts | 107° |
| 2026-05-08 08:23 | 40.57345 | -73.73441 | 9413 ft | 308 kts | 108° |
| 2026-05-08 08:23 | 40.56685 | -73.70739 | 10037 ft | 314 kts | 109° |
| 2026-05-08 08:23 | 40.56000 | -73.67954 | 10467 ft | 328 kts | 109° |
| 2026-05-08 08:23 | 40.55281 | -73.65031 | 10809 ft | 345 kts | 109° |
| 2026-05-08 08:24 | 40.54534 | -73.61993 | 11116 ft | 362 kts | 109° |
| 2026-05-08 08:24 | 40.53742 | -73.58778 | 11439 ft | 377 kts | 109° |
| 2026-05-08 08:24 | 40.52918 | -73.55434 | 11964 ft | 387 kts | 109° |
| 2026-05-08 08:24 | 40.52092 | -73.52084 | 12586 ft | 393 kts | 109° |
| 2026-05-08 08:25 | 40.51249 | -73.48673 | 13291 ft | 396 kts | 109° |
| 2026-05-08 08:25 | 40.50386 | -73.45187 | 13890 ft | 402 kts | 109° |
| 2026-05-08 08:25 | 40.49527 | -73.41719 | 14540 ft | 407 kts | 109° |
| 2026-05-08 08:25 | 40.48652 | -73.38193 | 15151 ft | 412 kts | 109° |
| 2026-05-08 08:26 | 40.47747 | -73.34556 | 15691 ft | 419 kts | 110° |
| 2026-05-08 08:26 | 40.46842 | -73.30920 | 16204 ft | 425 kts | 111° |
| 2026-05-08 08:26 | 40.45919 | -73.27222 | 16767 ft | 431 kts | 111° |
| 2026-05-08 08:26 | 40.44990 | -73.23499 | 17359 ft | 434 kts | 111° |
| 2026-05-08 08:27 | 40.44048 | -73.19737 | 17870 ft | 440 kts | 111° |
| 2026-05-08 08:27 | 40.43078 | -73.15865 | 18424 ft | 445 kts | 111° |
| 2026-05-08 08:27 | 40.42112 | -73.12017 | 18936 ft | 451 kts | 112° |
| 2026-05-08 08:27 | 40.41126 | -73.08096 | 19376 ft | 457 kts | 112° |
| 2026-05-08 08:28 | 40.40171 | -73.04098 | 19845 ft | 464 kts | 107° |
| 2026-05-08 08:28 | 40.39626 | -72.99882 | 20395 ft | 472 kts | 97° |
| 2026-05-08 08:28 | 40.39600 | -72.95582 | 20843 ft | 479 kts | 86° |
| 2026-05-08 08:28 | 40.40105 | -72.91260 | 21266 ft | 485 kts | 75° |
| 2026-05-08 08:29 | 40.41032 | -72.87023 | 21744 ft | 489 kts | 71° |
| 2026-05-08 08:29 | 40.42032 | -72.82773 | 22235 ft | 493 kts | 71° |
| 2026-05-08 08:29 | 40.43041 | -72.78447 | 22695 ft | 497 kts | 72° |
| 2026-05-08 08:29 | 40.44035 | -72.74143 | 23092 ft | 502 kts | 72° |
| 2026-05-08 08:30 | 40.45045 | -72.69724 | 23519 ft | 507 kts | 72° |
| 2026-05-08 08:30 | 40.46055 | -72.65279 | 23960 ft | 512 kts | 72° |
| 2026-05-08 08:30 | 40.48083 | -72.56274 | 24925 ft | 519 kts | 72° |
| 2026-05-08 08:31 | 40.49095 | -72.51753 | 25367 ft | 522 kts | 72° |
| 2026-05-08 08:31 | 40.50124 | -72.47142 | 25779 ft | 527 kts | 72° |
| 2026-05-08 08:31 | 40.51153 | -72.42514 | 26207 ft | 531 kts | 72° |
| 2026-05-08 08:31 | 40.52178 | -72.37891 | 26626 ft | 534 kts | 72° |
| 2026-05-08 08:32 | 40.53213 | -72.33211 | 27013 ft | 538 kts | 72° |
| 2026-05-08 08:32 | 40.54267 | -72.28434 | 27330 ft | 543 kts | 72° |
| 2026-05-08 08:32 | 40.55319 | -72.23654 | 27656 ft | 548 kts | 73° |
| 2026-05-08 08:32 | 40.56367 | -72.18883 | 28014 ft | 551 kts | 73° |
| 2026-05-08 08:33 | 40.57433 | -72.14013 | 28380 ft | 555 kts | 73° |
| 2026-05-08 08:33 | 40.58503 | -72.09114 | 28752 ft | 558 kts | 73° |
| 2026-05-08 08:33 | 40.59567 | -72.04233 | 29074 ft | 561 kts | 73° |
| 2026-05-08 08:33 | 40.60635 | -71.99323 | 29379 ft | 565 kts | 72° |
| 2026-05-08 08:34 | 40.61718 | -71.94331 | 29722 ft | 568 kts | 73° |
| 2026-05-08 08:34 | 40.62793 | -71.89363 | 30042 ft | 571 kts | 72° |
| 2026-05-08 08:34 | 40.63884 | -71.84312 | 30385 ft | 574 kts | 73° |
| 2026-05-08 08:34 | 40.64973 | -71.79260 | 30795 ft | 574 kts | 73° |
| 2026-05-08 08:35 | 40.66042 | -71.74283 | 31220 ft | 574 kts | 73° |
| 2026-05-08 08:35 | 40.67138 | -71.69173 | 31596 ft | 575 kts | 73° |
| 2026-05-08 08:35 | 40.68212 | -71.64154 | 31963 ft | 576 kts | 73° |
| 2026-05-08 08:35 | 40.69296 | -71.59072 | 32322 ft | 578 kts | 73° |
| 2026-05-08 08:36 | 40.70377 | -71.53996 | 32654 ft | 580 kts | 73° |
| 2026-05-08 08:36 | 40.71467 | -71.48862 | 33037 ft | 580 kts | 73° |
| 2026-05-08 08:36 | 40.72551 | -71.43745 | 33481 ft | 577 kts | 74° |
| 2026-05-08 08:36 | 40.73621 | -71.38683 | 34006 ft | 574 kts | 73° |
| 2026-05-08 08:37 | 40.74682 | -71.33653 | 34442 ft | 572 kts | 75° |
| 2026-05-08 08:37 | 40.75745 | -71.28599 | 34726 ft | 573 kts | 74° |
| 2026-05-08 08:37 | 40.76801 | -71.23571 | 34942 ft | 576 kts | 75° |
| 2026-05-08 08:37 | 40.77866 | -71.18482 | 35227 ft | 577 kts | 75° |
| 2026-05-08 08:38 | 40.78937 | -71.13354 | 35630 ft | 574 kts | 75° |
| 2026-05-08 08:38 | 40.79979 | -71.08351 | 36002 ft | 572 kts | 75° |
| 2026-05-08 08:38 | 40.81032 | -71.03285 | 36263 ft | 572 kts | 75° |
| 2026-05-08 08:38 | 40.82090 | -70.98184 | 36487 ft | 572 kts | 75° |
| 2026-05-08 08:39 | 40.83132 | -70.93147 | 36737 ft | 572 kts | 75° |
| 2026-05-08 08:39 | 40.84179 | -70.88074 | 36851 ft | 573 kts | 75° |
| 2026-05-08 08:39 | 40.86271 | -70.77894 | 36867 ft | 573 kts | 75° |
| 2026-05-08 08:40 | 40.88342 | -70.67773 | 36877 ft | 572 kts | 75° |
| 2026-05-08 08:40 | 40.90406 | -70.57635 | 36877 ft | 573 kts | 75° |
| 2026-05-08 08:41 | 40.92463 | -70.47481 | 36869 ft | 570 kts | 75° |
| 2026-05-08 08:41 | 40.94500 | -70.37374 | 36869 ft | 573 kts | 76° |
| 2026-05-08 08:42 | 40.96543 | -70.27193 | 36847 ft | 573 kts | 76° |
| 2026-05-08 08:42 | 40.98567 | -70.17049 | 36856 ft | 572 kts | 76° |
| 2026-05-08 08:43 | 41.00583 | -70.06895 | 36854 ft | 572 kts | 76° |
| 2026-05-08 08:43 | 41.02595 | -69.96716 | 36861 ft | 571 kts | 77° |
| 2026-05-08 08:44 | 41.04601 | -69.86519 | 36855 ft | 571 kts | 75° |
| 2026-05-08 08:44 | 41.07614 | -69.76877 | 36854 ft | 571 kts | 58° |
| 2026-05-08 08:45 | 41.12403 | -69.68635 | 36826 ft | 562 kts | 40° |
| 2026-05-08 08:45 | 41.18224 | -69.62289 | 36829 ft | 556 kts | 32° |
| 2026-05-08 08:46 | 41.21315 | -69.59396 | 36737 ft | 533 kts | 21° |